createdAt,value
2018-07-21T00:02:15.759Z,21.79
2018-07-21T00:04:46.995Z,21.76
2018-07-21T00:07:17.747Z,21.59
2018-07-21T00:09:48.881Z,21.13
2018-07-21T00:12:20.261Z,20.90
2018-07-21T00:14:51.888Z,21.19
2018-07-21T00:17:23.098Z,21.40
2018-07-21T00:19:54.502Z,21.60
2018-07-21T00:22:25.895Z,21.68
2018-07-21T00:24:57.115Z,21.76
2018-07-21T00:27:28.390Z,21.78
2018-07-21T00:29:59.667Z,21.75
2018-07-21T00:32:30.495Z,21.74
2018-07-21T00:35:01.712Z,21.64
2018-07-21T00:37:33.262Z,21.67
2018-07-21T00:40:05.400Z,21.65
2018-07-21T00:42:36.690Z,21.56
2018-07-21T00:45:08.230Z,21.46
2018-07-21T00:47:39.755Z,21.44
2018-07-21T00:50:11.368Z,21.49
2018-07-21T00:52:42.851Z,21.62
2018-07-21T00:55:17.283Z,21.66
2018-07-21T00:57:48.578Z,21.61
2018-07-21T01:00:19.974Z,21.74
2018-07-21T01:02:51.235Z,21.63
2018-07-21T01:05:22.877Z,21.55
2018-07-21T01:07:54.402Z,21.32
2018-07-21T01:10:25.718Z,21.08
2018-07-21T01:12:57.466Z,21.12
2018-07-21T01:15:29.956Z,21.19
2018-07-21T01:18:01.263Z,21.29
2018-07-21T01:20:32.674Z,21.25
2018-07-21T01:23:04.047Z,21.21
2018-07-21T01:25:35.304Z,21.18
2018-07-21T01:28:06.116Z,21.16
2018-07-21T01:30:37.191Z,20.97
2018-07-21T01:33:15.002Z,20.69
2018-07-21T01:35:46.246Z,20.67
2018-07-21T01:38:17.515Z,20.79
2018-07-21T01:40:48.722Z,20.89
2018-07-21T01:43:20.123Z,20.81
2018-07-21T01:45:51.394Z,20.66
2018-07-21T01:48:23.760Z,20.47
2018-07-21T01:50:55.594Z,20.49
2018-07-21T01:53:26.388Z,20.48
2018-07-21T01:55:57.449Z,20.43
2018-07-21T01:58:28.712Z,20.49
2018-07-21T02:00:59.953Z,20.48
2018-07-21T02:03:31.326Z,20.49
2018-07-21T02:06:02.626Z,20.56
2018-07-21T02:08:33.811Z,20.66
2018-07-21T02:11:05.431Z,20.60
2018-07-21T02:13:36.420Z,20.51
2018-07-21T02:16:07.826Z,20.40
2018-07-21T02:18:39.225Z,20.26
2018-07-21T02:21:10.809Z,20.20
2018-07-21T02:23:42.122Z,20.05
2018-07-21T02:26:13.522Z,19.98
2018-07-21T02:28:44.917Z,19.79
2018-07-21T02:31:16.420Z,19.82
2018-07-21T02:33:47.703Z,19.83
2018-07-21T02:36:19.160Z,19.81
2018-07-21T02:38:50.461Z,19.82
2018-07-21T02:41:21.945Z,19.86
2018-07-21T02:43:53.421Z,19.82
2018-07-21T02:46:24.764Z,19.88
2018-07-21T02:48:56.090Z,19.85
2018-07-21T02:51:27.527Z,19.80
2018-07-21T02:53:58.828Z,19.76
2018-07-21T02:56:30.050Z,19.67
2018-07-21T02:59:01.408Z,19.67
2018-07-21T03:01:32.932Z,19.79
2018-07-21T03:04:03.827Z,20.09
2018-07-21T03:06:35.041Z,20.22
2018-07-21T03:09:11.259Z,20.07
2018-07-21T03:11:43.018Z,19.91
2018-07-21T03:14:14.642Z,19.80
2018-07-21T03:16:46.039Z,19.72
2018-07-21T03:19:17.405Z,19.73
2018-07-21T03:21:48.614Z,19.71
2018-07-21T03:24:19.881Z,19.65
2018-07-21T03:26:51.154Z,19.47
2018-07-21T03:29:22.541Z,19.41
2018-07-21T03:31:53.792Z,19.36
2018-07-21T03:34:25.343Z,19.12
2018-07-21T03:36:56.583Z,19.18
2018-07-21T03:39:28.396Z,19.23
2018-07-21T03:41:59.167Z,19.21
2018-07-21T03:44:30.397Z,19.20
2018-07-21T03:47:01.763Z,19.14
2018-07-21T03:49:33.116Z,19.11
2018-07-21T03:52:04.977Z,19.10
2018-07-21T03:54:36.413Z,19.14
2018-07-21T03:57:07.910Z,19.20
2018-07-21T03:59:39.126Z,19.23
2018-07-21T04:02:10.572Z,19.20
2018-07-21T04:04:41.756Z,19.14
2018-07-21T04:07:12.946Z,19.05
2018-07-21T04:09:44.547Z,19.08
2018-07-21T04:12:16.088Z,19.19
2018-07-21T04:14:47.530Z,19.24
2018-07-21T04:17:26.672Z,19.35
2018-07-21T04:19:58.569Z,19.33
2018-07-21T04:22:30.554Z,19.35
2018-07-21T04:25:01.859Z,19.30
2018-07-21T04:27:33.295Z,19.28
2018-07-21T04:30:04.774Z,19.27
2018-07-21T04:32:37.025Z,19.31
2018-07-21T04:35:09.506Z,19.31
2018-07-21T04:37:41.831Z,19.40
2018-07-21T04:40:15.712Z,19.41
2018-07-21T04:42:46.845Z,19.51
2018-07-21T04:45:19.227Z,19.66
2018-07-21T04:47:50.514Z,19.63
2018-07-21T04:50:22.058Z,19.58
2018-07-21T04:52:54.424Z,19.49
2018-07-21T04:55:26.241Z,19.47
2018-07-21T04:57:57.605Z,19.48
2018-07-21T05:00:29.293Z,19.62
2018-07-21T05:03:00.746Z,19.63
2018-07-21T05:05:32.043Z,19.59
2018-07-21T05:08:03.988Z,19.60
2018-07-21T05:10:35.349Z,19.70
2018-07-21T05:13:06.668Z,19.79
2018-07-21T05:15:46.769Z,20.04
2018-07-21T05:18:18.117Z,20.29
2018-07-21T05:20:50.482Z,20.07
2018-07-21T05:23:21.758Z,20.01
2018-07-21T05:25:53.011Z,19.97
2018-07-21T05:28:24.264Z,19.82
2018-07-21T05:30:55.611Z,19.70
2018-07-21T05:33:27.192Z,19.64
2018-07-21T05:35:58.578Z,19.59
2018-07-21T05:38:29.800Z,19.53
2018-07-21T05:41:01.165Z,19.62
2018-07-21T05:43:32.803Z,19.55
2018-07-21T05:46:04.318Z,19.68
2018-07-21T05:48:35.788Z,19.79
2018-07-21T05:51:07.803Z,19.93
2018-07-21T05:53:39.154Z,20.06
2018-07-21T05:56:10.876Z,20.08
2018-07-21T05:58:42.051Z,19.99
2018-07-21T06:01:15.260Z,20.12
2018-07-21T06:03:46.591Z,20.19
2018-07-21T06:06:18.013Z,20.28
2018-07-21T06:08:49.339Z,20.66
2018-07-21T06:11:20.747Z,20.66
2018-07-21T06:13:52.109Z,20.79
2018-07-21T06:16:23.493Z,21.30
2018-07-21T06:18:54.725Z,21.32
2018-07-21T06:21:26.881Z,21.55
2018-07-21T06:23:58.197Z,21.37
2018-07-21T06:26:29.586Z,21.74
2018-07-21T06:29:00.862Z,22.03
2018-07-21T06:31:32.246Z,21.94
2018-07-21T06:34:08.449Z,21.53
2018-07-21T06:36:40.910Z,22.11
2018-07-21T06:39:13.777Z,22.44
2018-07-21T06:41:45.166Z,21.93
2018-07-21T06:44:17.352Z,21.53
2018-07-21T06:46:48.886Z,21.86
2018-07-21T06:49:20.154Z,22.30
2018-07-21T06:51:51.633Z,22.93
2018-07-21T06:54:23.098Z,23.15
2018-07-21T06:56:54.611Z,23.28
2018-07-21T06:59:26.369Z,23.60
2018-07-21T07:01:58.088Z,23.72
2018-07-21T07:04:29.756Z,23.79
2018-07-21T07:07:01.134Z,23.87
2018-07-21T07:09:32.516Z,24.03
2018-07-21T07:12:03.892Z,24.54
2018-07-21T07:14:35.152Z,24.68
2018-07-21T07:17:07.459Z,24.69
2018-07-21T07:19:38.990Z,24.50
2018-07-21T07:22:10.383Z,24.72
2018-07-21T07:24:42.430Z,24.66
2018-07-21T07:27:14.065Z,25.40
2018-07-21T07:29:46.060Z,25.48
2018-07-21T07:32:18.604Z,24.87
2018-07-21T07:34:51.782Z,24.74
2018-07-21T07:37:27.157Z,24.20
2018-07-21T07:39:58.884Z,23.62
2018-07-21T07:42:32.211Z,23.51
2018-07-21T07:45:03.610Z,23.90
2018-07-21T07:47:35.000Z,23.68
2018-07-21T07:50:06.361Z,23.73
2018-07-21T07:52:37.879Z,23.49
2018-07-21T07:55:09.365Z,23.42
2018-07-21T07:57:40.816Z,23.33
2018-07-21T08:00:15.578Z,23.53
2018-07-21T08:02:46.402Z,23.65
2018-07-21T08:05:19.602Z,23.67
2018-07-21T08:07:50.994Z,23.76
2018-07-21T08:10:22.419Z,23.76
2018-07-21T08:12:54.504Z,24.44
2018-07-21T08:15:25.859Z,25.02
2018-07-21T08:17:57.206Z,25.29
2018-07-21T08:20:28.717Z,25.22
2018-07-21T08:23:00.065Z,24.94
2018-07-21T08:25:31.794Z,24.96
2018-07-21T08:28:03.081Z,24.72
2018-07-21T08:30:34.368Z,24.52
2018-07-21T08:33:05.710Z,24.28
2018-07-21T08:35:37.066Z,24.73
2018-07-21T08:38:08.623Z,24.84
2018-07-21T08:40:39.934Z,24.79
2018-07-21T08:43:12.549Z,24.69
2018-07-21T08:45:44.202Z,24.64
2018-07-21T08:48:15.566Z,24.75
2018-07-21T08:54:54.461Z,24.63
2018-07-21T08:57:28.274Z,24.69
2018-07-21T08:59:59.667Z,24.81
2018-07-21T09:02:32.307Z,25.29
2018-07-21T09:05:04.254Z,25.84
2018-07-21T09:48:00.912Z,25.58
2018-07-21T09:51:28.733Z,25.79
2018-07-21T09:54:00.067Z,26.81
2018-07-21T09:56:29.995Z,27.98
2018-07-21T09:58:59.912Z,28.64
2018-07-21T10:01:32.491Z,27.90
2018-07-21T10:04:03.488Z,27.85
2018-07-21T10:06:33.522Z,27.32
2018-07-21T10:09:03.726Z,26.93
2018-07-21T10:11:33.807Z,26.50
2018-07-21T10:14:06.719Z,26.12
2018-07-21T10:16:37.192Z,25.98
2018-07-21T10:19:07.381Z,26.40
2018-07-21T10:21:38.688Z,27.20
2018-07-21T10:24:16.084Z,26.96
2018-07-21T10:26:53.446Z,26.49
2018-07-21T10:29:24.528Z,26.30
2018-07-21T10:31:54.541Z,26.40
2018-07-21T10:34:24.584Z,26.44
2018-07-21T10:36:54.728Z,26.51
2018-07-21T10:39:27.340Z,26.25
2018-07-21T10:41:58.654Z,26.16
2018-07-21T10:44:28.655Z,26.20
2018-07-21T10:46:59.751Z,26.36
2018-07-21T10:49:29.708Z,26.41
2018-07-21T10:52:00.622Z,26.78
2018-07-21T10:54:30.555Z,27.22
2018-07-21T10:57:00.519Z,27.12
2018-07-21T10:59:30.554Z,27.13
2018-07-21T11:02:01.948Z,27.20
2018-07-21T11:04:32.909Z,27.25
2018-07-21T11:07:03.437Z,27.45
2018-07-21T11:09:33.413Z,27.84
2018-07-21T11:12:04.760Z,28.03
2018-07-21T11:14:35.832Z,28.22
2018-07-21T11:17:05.812Z,28.86
2018-07-21T11:19:35.813Z,28.92
2018-07-21T11:22:07.582Z,29.15
2018-07-21T11:24:37.397Z,28.55
2018-07-21T11:27:09.058Z,28.19
2018-07-21T11:29:40.059Z,27.92
2018-07-21T11:32:11.509Z,27.79
2018-07-21T11:34:41.610Z,28.05
2018-07-21T11:37:12.923Z,28.20
2018-07-21T11:39:42.738Z,28.40
2018-07-21T11:42:14.689Z,28.64
2018-07-21T11:44:46.084Z,28.59
2018-07-21T11:47:16.102Z,28.34
2018-07-21T11:49:46.203Z,28.27
2018-07-21T11:52:17.464Z,28.48
2018-07-21T11:54:48.698Z,28.67
2018-07-21T11:57:18.719Z,28.44
2018-07-21T11:59:48.614Z,28.52
2018-07-21T12:02:21.025Z,28.92
2018-07-21T12:04:50.805Z,28.81
2018-07-21T12:07:20.716Z,28.86
2018-07-21T12:09:51.051Z,28.83
2018-07-21T12:12:21.062Z,28.77
2018-07-21T12:14:53.283Z,28.88
2018-07-21T12:17:26.360Z,29.18
2018-07-21T12:19:59.382Z,29.38
2018-07-21T12:22:29.423Z,29.35
2018-07-21T12:24:59.504Z,29.54
2018-07-21T12:27:32.040Z,29.36
2018-07-21T12:30:04.978Z,29.17
2018-07-21T12:32:35.017Z,29.09
2018-07-21T12:35:07.465Z,29.03
2018-07-21T12:37:37.577Z,29.24
2018-07-21T12:40:08.869Z,28.98
2018-07-21T12:42:40.292Z,28.89
2018-07-21T12:45:14.381Z,28.90
2018-07-21T12:47:44.218Z,29.04
2018-07-21T12:50:24.038Z,29.09
2018-07-21T12:52:56.508Z,29.33
2018-07-21T12:55:26.986Z,29.52
2018-07-21T12:57:56.885Z,29.53
2018-07-21T13:00:29.136Z,29.40
2018-07-21T13:02:59.298Z,29.34
2018-07-21T13:05:30.019Z,29.46
2018-07-21T13:08:00.024Z,29.26
2018-07-21T13:10:31.749Z,29.26
2018-07-21T13:13:02.987Z,29.62
2018-07-21T13:15:33.744Z,29.78
2018-07-21T13:18:07.272Z,30.15
2018-07-21T13:20:38.612Z,30.38
2018-07-21T13:23:08.964Z,30.44
2018-07-21T13:25:38.847Z,30.94
2018-07-21T13:28:10.175Z,30.74
2018-07-21T13:30:41.512Z,30.48
2018-07-21T13:33:11.832Z,30.26
2018-07-21T13:35:43.004Z,30.69
2018-07-21T13:38:17.493Z,30.94
2018-07-21T13:40:47.577Z,30.91
2018-07-21T13:43:18.707Z,30.36
2018-07-21T13:45:49.714Z,29.89
2018-07-21T13:48:20.694Z,29.86
2018-07-21T13:50:54.193Z,29.82
2018-07-21T13:53:25.324Z,29.58
2018-07-21T13:55:55.243Z,29.32
2018-07-21T13:58:25.144Z,29.21
2018-07-21T14:00:56.592Z,29.32
2018-07-21T14:03:27.853Z,29.66
2018-07-21T14:05:57.722Z,29.59
2018-07-21T14:08:27.716Z,29.61
2018-07-21T14:10:58.996Z,29.96
2018-07-21T14:13:29.978Z,30.45
2018-07-21T14:16:00.292Z,30.27
2018-07-21T14:18:31.305Z,30.04
2018-07-21T14:21:02.672Z,29.92
2018-07-21T14:23:33.861Z,29.79
2018-07-21T14:26:03.769Z,29.42
2018-07-21T14:28:33.697Z,29.51
2018-07-21T14:31:06.975Z,29.27
2018-07-21T14:33:37.545Z,29.27
2018-07-21T14:36:08.214Z,29.55
2018-07-21T14:38:40.003Z,29.46
2018-07-21T14:41:11.594Z,29.25
2018-07-21T14:43:41.547Z,28.93
2018-07-21T14:46:13.468Z,28.83
2018-07-21T14:48:44.879Z,28.82
2018-07-21T14:51:14.920Z,29.00
2018-07-21T14:53:46.107Z,29.24
2018-07-21T14:56:16.241Z,29.24
2018-07-21T14:58:48.304Z,29.19
2018-07-21T15:01:19.563Z,28.94
2018-07-21T15:03:50.895Z,28.74
2018-07-21T15:06:22.261Z,28.72
2018-07-21T15:08:52.201Z,28.80
2018-07-21T15:11:22.444Z,28.73
2018-07-21T15:13:52.363Z,28.71
2018-07-21T15:16:25.092Z,28.68
2018-07-21T15:18:55.392Z,28.59
2018-07-21T15:21:25.285Z,28.65
2018-07-21T15:23:56.699Z,28.66
2018-07-21T15:26:28.148Z,28.69
2018-07-21T15:28:58.124Z,28.64
2018-07-21T15:31:28.017Z,28.55
2018-07-21T15:33:58.085Z,28.67
2018-07-21T15:36:29.083Z,28.74
2018-07-21T15:39:00.345Z,28.82
2018-07-21T15:41:31.755Z,28.76
2018-07-21T15:44:01.920Z,28.57
2018-07-21T15:46:33.132Z,28.64
2018-07-21T15:49:03.785Z,28.67
2018-07-21T15:51:35.760Z,28.59
2018-07-21T15:54:06.332Z,28.52
2018-07-21T15:56:36.120Z,28.44
2018-07-21T15:59:06.123Z,28.44
2018-07-21T16:01:37.061Z,28.40
2018-07-21T16:04:08.015Z,28.51
2018-07-21T16:06:40.130Z,28.42
2018-07-21T16:09:12.433Z,28.38
2018-07-21T16:11:43.551Z,28.40
2018-07-21T16:14:13.611Z,28.40
2018-07-21T16:16:43.487Z,28.37
2018-07-21T16:19:13.424Z,28.41
2018-07-21T16:21:44.360Z,28.37
2018-07-21T16:24:15.408Z,28.32
2018-07-21T16:26:45.280Z,28.36
2018-07-21T16:29:15.187Z,28.29
2018-07-21T16:31:46.452Z,28.25
2018-07-21T16:34:19.340Z,28.22
2018-07-21T16:36:49.239Z,28.24
2018-07-21T16:39:19.144Z,28.21
2018-07-21T16:41:50.061Z,28.27
2018-07-21T16:44:21.066Z,28.16
2018-07-21T16:46:52.519Z,28.24
2018-07-21T16:49:23.978Z,28.27
2018-07-21T16:51:53.971Z,28.24
2018-07-21T16:54:26.272Z,28.15
2018-07-21T16:57:05.016Z,28.15
2018-07-21T16:59:36.720Z,28.24
2018-07-21T17:02:06.999Z,28.25
2018-07-21T17:04:37.010Z,28.22
2018-07-21T17:07:08.094Z,28.19
2018-07-21T17:09:39.812Z,28.16
2018-07-21T17:12:10.170Z,28.20
2018-07-21T17:14:41.170Z,28.17
2018-07-21T17:17:11.628Z,28.08
2018-07-21T17:19:42.200Z,28.10
2018-07-21T17:22:12.449Z,28.14
2018-07-21T17:24:42.340Z,28.10
2018-07-21T17:27:13.481Z,28.08
2018-07-21T17:29:44.917Z,27.99
2018-07-21T17:32:15.348Z,27.95
2018-07-21T17:34:45.228Z,27.88
2018-07-21T17:37:15.134Z,27.88
2018-07-21T17:39:46.606Z,27.74
2018-07-21T17:42:17.351Z,27.57
2018-07-21T17:44:47.195Z,27.61
2018-07-21T17:47:16.932Z,27.58
2018-07-21T17:49:46.972Z,27.55
2018-07-21T17:52:18.013Z,27.56
2018-07-21T17:54:48.960Z,27.66
2018-07-21T17:57:19.365Z,27.54
2018-07-21T17:59:49.253Z,27.38
2018-07-21T18:02:20.099Z,27.41
2018-07-21T18:04:51.572Z,27.40
2018-07-21T18:07:21.469Z,27.35
2018-07-21T18:09:51.296Z,27.28
2018-07-21T18:12:21.387Z,27.21
2018-07-21T18:14:51.349Z,27.13
2018-07-21T18:17:23.327Z,27.09
2018-07-21T18:19:54.032Z,26.94
2018-07-21T18:22:23.957Z,26.86
2018-07-21T18:24:54.019Z,26.63
2018-07-21T18:27:23.914Z,26.52
2018-07-21T18:29:56.183Z,26.43
2018-07-21T18:32:26.101Z,26.39
2018-07-21T18:34:56.110Z,26.26
2018-07-21T18:37:26.203Z,26.36
2018-07-21T18:39:58.031Z,26.39
2018-07-21T18:42:28.827Z,26.36
2018-07-21T18:44:58.873Z,26.23
2018-07-21T18:47:29.083Z,26.12
2018-07-21T18:50:01.406Z,26.00
2018-07-21T18:52:31.525Z,25.97
2018-07-21T18:55:01.448Z,25.88
2018-07-21T18:57:32.246Z,25.74
2018-07-21T19:00:09.418Z,25.55
2018-07-21T19:02:52.984Z,25.23
2018-07-21T19:05:26.641Z,24.94
2018-07-21T19:07:59.105Z,24.95
2018-07-21T19:10:29.783Z,24.81
2018-07-21T19:13:01.553Z,24.78
2018-07-21T19:15:36.903Z,24.70
2018-07-21T19:18:06.956Z,24.95
2018-07-21T19:20:42.175Z,24.97
2018-07-21T19:23:12.648Z,24.85
2018-07-21T19:25:47.646Z,24.68
2018-07-21T19:28:17.638Z,24.82
2018-07-21T19:30:47.515Z,24.82
2018-07-21T19:33:17.735Z,24.66
2018-07-21T19:35:47.693Z,24.66
2018-07-21T19:38:17.720Z,24.64
2018-07-21T19:40:48.731Z,24.66
2018-07-21T19:43:19.762Z,24.58
2018-07-21T19:45:49.645Z,24.51
2018-07-21T19:48:19.457Z,24.50
2018-07-21T19:50:49.484Z,24.47
2018-07-21T19:53:20.603Z,24.51
2018-07-21T19:55:51.631Z,24.48
2018-07-21T19:58:21.738Z,24.45
2018-07-21T20:00:52.975Z,24.41
2018-07-21T20:03:24.652Z,24.32
2018-07-21T20:05:55.915Z,24.25
2018-07-21T20:08:29.781Z,24.29
2018-07-21T20:11:00.915Z,24.26
2018-07-21T20:13:31.057Z,24.17
2018-07-21T20:16:02.440Z,24.08
2018-07-21T20:18:33.504Z,23.87
2018-07-21T20:21:03.820Z,23.67
2018-07-21T20:23:37.431Z,23.97
2018-07-21T20:26:10.961Z,24.09
2018-07-21T20:28:41.797Z,24.07
2018-07-21T20:31:13.422Z,24.04
2018-07-21T20:33:45.165Z,24.04
2018-07-21T20:36:15.719Z,23.93
2018-07-21T20:41:57.363Z,24.04
2018-07-21T20:44:31.277Z,23.93
2018-07-21T20:47:01.812Z,23.89
2018-07-21T20:49:32.574Z,23.77
2018-07-21T20:52:02.884Z,23.84
2018-07-21T20:54:39.663Z,23.87
2018-07-21T20:57:15.090Z,23.81
2018-07-21T20:59:46.671Z,23.73
2018-07-21T21:02:18.319Z,23.43
2018-07-21T21:04:51.502Z,23.17
2018-07-21T21:07:21.454Z,23.21
2018-07-21T21:09:51.337Z,22.88
2018-07-21T21:12:21.302Z,22.48
2018-07-21T21:14:52.806Z,22.18
2018-07-21T21:17:24.750Z,22.08
2018-07-21T21:19:54.562Z,22.08
2018-07-21T21:22:26.278Z,22.64
2018-07-21T21:24:57.493Z,23.06
2018-07-21T21:27:27.420Z,23.28
2018-07-21T21:29:57.195Z,23.34
2018-07-21T21:32:28.169Z,23.19
2018-07-21T21:34:59.779Z,22.74
2018-07-21T21:37:29.806Z,22.35
2018-07-21T21:39:59.732Z,22.07
2018-07-21T21:42:32.951Z,21.86
2018-07-21T21:45:05.472Z,21.77
2018-07-21T21:47:38.372Z,21.83
2018-07-21T21:50:12.734Z,21.78
2018-07-21T21:52:45.060Z,21.69
2018-07-21T21:55:17.857Z,21.78
2018-07-21T21:57:48.092Z,21.99
2018-07-21T22:00:19.786Z,22.14
2018-07-21T22:02:51.463Z,22.01
2018-07-21T22:05:24.078Z,21.84
2018-07-21T22:07:56.179Z,21.67
2018-07-21T22:10:27.363Z,21.51
2018-07-21T22:12:57.336Z,21.52
2018-07-21T22:15:27.368Z,21.49
2018-07-21T22:17:58.606Z,21.72
2018-07-21T22:20:29.625Z,21.72
2018-07-21T22:22:59.469Z,21.71
2018-07-21T22:25:29.548Z,21.66
2018-07-21T22:28:00.577Z,21.67
2018-07-21T22:30:31.664Z,21.64
2018-07-21T22:33:01.587Z,21.84
2018-07-21T22:35:32.100Z,22.49
2018-07-21T22:38:03.797Z,22.82
2018-07-21T22:40:34.994Z,22.96
2018-07-21T22:43:05.996Z,23.05
2018-07-21T22:45:36.047Z,23.05
2018-07-21T22:48:07.420Z,23.05
2018-07-21T22:50:39.005Z,23.10
2018-07-21T22:53:09.140Z,23.11
2018-07-21T22:55:39.025Z,23.10
2018-07-21T22:58:09.736Z,22.92
2018-07-21T23:00:41.069Z,22.93
2018-07-21T23:03:12.052Z,23.05
2018-07-21T23:05:42.066Z,23.05
2018-07-21T23:08:12.316Z,22.75
2018-07-21T23:10:43.760Z,22.35
2018-07-21T23:13:15.008Z,22.19
2018-07-21T23:15:45.067Z,22.08
2018-07-21T23:18:15.374Z,22.01
2018-07-21T23:20:45.609Z,22.25
2018-07-21T23:23:18.037Z,22.37
2018-07-21T23:25:49.388Z,22.50
2018-07-21T23:28:19.262Z,22.63
2018-07-21T23:30:51.953Z,22.61
2018-07-21T23:33:23.260Z,22.56
2018-07-21T23:35:54.096Z,22.37
2018-07-21T23:38:23.951Z,22.39
2018-07-21T23:40:53.863Z,22.22
2018-07-21T23:43:26.364Z,22.20
2018-07-21T23:45:56.996Z,22.17
2018-07-21T23:48:27.033Z,22.21
2018-07-21T23:50:57.755Z,22.32
2018-07-21T23:53:28.771Z,22.40
2018-07-21T23:55:59.742Z,22.49
2018-07-21T23:58:29.696Z,22.51
